createdAt,value
2022-08-09T00:00:19.504Z,58.7400
2022-08-09T00:01:21.907Z,58.9130
2022-08-09T00:02:24.285Z,59.1670
2022-08-09T00:04:10.699Z,59.1240
2022-08-09T00:04:34.676Z,58.5830
2022-08-09T00:06:17.290Z,58.4240
2022-08-09T00:06:33.603Z,59.3010
2022-08-09T00:07:44.486Z,59.0200
2022-08-09T00:08:36.116Z,59.0450
2022-08-09T00:09:38.432Z,59.1700
2022-08-09T00:10:40.804Z,60.4980
2022-08-09T00:12:02.951Z,60.4790
2022-08-09T00:12:43.286Z,60.4610
2022-08-09T00:13:45.662Z,60.0860
2022-08-09T00:14:47.993Z,59.6400
2022-08-09T00:15:58.102Z,60.5410
2022-08-09T00:16:52.735Z,61.2300
2022-08-09T00:18:05.943Z,60.8710
2022-08-09T00:18:55.333Z,60.9180
2022-08-09T00:19:57.688Z,60.8020
2022-08-09T00:21:00.073Z,60.4870
2022-08-09T00:22:03.504Z,60.6480
2022-08-09T00:23:53.959Z,60.9430
2022-08-09T00:24:04.922Z,61.0950
2022-08-09T00:25:10.028Z,61.6710
2022-08-09T00:26:11.142Z,62.3770
2022-08-09T00:27:11.931Z,63.1020
2022-08-09T00:28:14.277Z,63.7240
2022-08-09T00:30:09.989Z,63.9640
2022-08-09T00:30:25.799Z,64.3320
2022-08-09T00:31:58.328Z,64.5350
2022-08-09T00:32:35.821Z,63.6990
2022-08-09T00:33:32.679Z,62.5940
2022-08-09T00:34:24.192Z,62.2510
2022-08-09T00:35:26.507Z,61.5480
2022-08-09T00:36:30.748Z,61.5780
2022-08-09T00:37:32.354Z,61.4210
2022-08-09T00:38:31.479Z,61.6460
2022-08-09T00:40:09.339Z,62.0950
2022-08-09T00:40:34.117Z,61.2230
2022-08-09T00:44:11.765Z,60.7380
2022-08-09T00:44:16.958Z,60.3510
2022-08-09T00:44:19.576Z,60.6780
2022-08-09T00:44:39.441Z,60.9750
2022-08-09T00:45:50.550Z,61.0310
2022-08-09T00:46:57.415Z,61.1030
2022-08-09T00:47:42.358Z,60.9310
2022-08-09T00:48:47.562Z,60.8510
2022-08-09T00:49:54.641Z,60.3240
2022-08-09T00:50:45.366Z,59.8750
2022-08-09T00:51:55.943Z,59.7850
2022-08-09T00:52:50.188Z,60.2460
2022-08-09T00:53:52.697Z,60.4060
2022-08-09T00:54:55.033Z,59.9510
2022-08-09T00:56:05.035Z,59.9660
2022-08-09T00:56:57.651Z,60.5070
2022-08-09T00:58:00.045Z,60.3130
2022-08-09T00:59:02.395Z,60.0060
2022-08-09T01:00:20.715Z,59.7510
2022-08-09T01:01:07.191Z,59.2640
2022-08-09T01:02:07.333Z,59.2620
2022-08-09T01:03:09.661Z,60.8120
2022-08-09T01:04:11.976Z,60.6950
2022-08-09T01:05:21.737Z,60.3290
2022-08-09T01:06:17.733Z,60.4340
2022-08-09T01:07:16.800Z,60.8120
2022-08-09T01:08:19.132Z,60.6250
2022-08-09T01:09:21.475Z,60.8680
2022-08-09T01:10:25.917Z,61.6400
2022-08-09T01:11:26.299Z,63.0920
2022-08-09T01:12:26.556Z,63.1880
2022-08-09T01:13:41.583Z,63.0930
2022-08-09T01:14:31.336Z,62.5860
2022-08-09T01:15:33.720Z,61.6770
2022-08-09T01:16:35.254Z,61.6500
2022-08-09T01:17:36.272Z,61.6890
2022-08-09T01:18:38.597Z,62.2780
2022-08-09T01:19:51.592Z,61.4910
2022-08-09T01:20:43.283Z,60.8500
2022-08-09T01:21:50.798Z,60.8970
2022-08-09T01:22:45.769Z,60.8870
2022-08-09T01:24:02.974Z,60.8100
2022-08-09T01:24:52.271Z,60.2250
2022-08-09T01:27:07.839Z,60.8490
2022-08-09T01:28:06.230Z,61.1840
2022-08-09T01:29:08.564Z,60.9870
2022-08-09T01:30:35.494Z,60.5460
2022-08-09T01:32:28.028Z,61.0830
2022-08-09T01:32:31.281Z,62.0070
2022-08-09T01:33:17.792Z,61.6350
2022-08-09T01:34:17.971Z,61.3650
2022-08-09T01:35:37.642Z,61.7900
2022-08-09T01:36:22.670Z,61.8630
2022-08-09T01:38:05.821Z,62.0400
2022-08-09T01:38:27.340Z,62.0640
2022-08-09T01:39:29.705Z,62.1590
2022-08-09T01:40:29.981Z,62.2960
2022-08-09T01:41:32.261Z,61.8660
2022-08-09T01:42:34.671Z,60.8160
2022-08-09T01:43:41.857Z,60.5370
2022-08-09T01:44:37.225Z,61.0350
2022-08-09T01:45:45.979Z,60.5320
2022-08-09T01:46:41.904Z,60.2460
2022-08-09T01:47:44.883Z,60.0400
2022-08-09T01:48:46.686Z,60.9790
2022-08-09T01:49:50.837Z,60.5230
2022-08-09T01:50:55.125Z,61.0680
2022-08-09T01:51:54.633Z,61.6240
2022-08-09T01:52:14.580Z,61.7670
2022-08-09T01:53:19.409Z,61.9800
2022-08-09T01:54:15.946Z,61.5250
2022-08-09T01:55:18.298Z,62.2680
2022-08-09T01:56:20.707Z,61.8370
2022-08-09T01:57:20.985Z,62.1750
2022-08-09T01:58:24.297Z,62.3020
2022-08-09T01:59:25.828Z,61.6780
2022-08-09T02:00:35.543Z,61.4830
2022-08-09T02:01:58.510Z,61.8380
2022-08-09T02:02:32.512Z,61.5250
2022-08-09T02:03:33.495Z,61.3080
2022-08-09T02:04:33.730Z,60.8420
2022-08-09T02:05:53.676Z,61.5150
2022-08-09T02:06:38.509Z,60.8960
2022-08-09T02:08:39.387Z,61.2750
2022-08-09T02:08:58.889Z,62.0440
2022-08-09T02:09:42.373Z,61.5560
2022-08-09T02:10:51.032Z,61.2460
2022-08-09T02:11:44.209Z,61.4470
2022-08-09T02:12:46.673Z,61.3240
2022-08-09T02:13:55.437Z,61.3790
2022-08-09T02:14:51.974Z,61.5860
2022-08-09T02:15:51.809Z,62.2320
2022-08-09T02:17:15.420Z,61.9060
2022-08-09T02:18:09.751Z,61.4550
2022-08-09T02:18:56.968Z,61.6170
2022-08-09T02:19:59.389Z,61.8150
2022-08-09T02:21:01.830Z,62.0380
2022-08-09T02:22:04.277Z,61.9360
2022-08-09T02:23:04.560Z,61.6500
2022-08-09T02:24:07.024Z,61.0160
2022-08-09T02:25:09.427Z,60.5200
2022-08-09T02:26:25.304Z,60.6180
2022-08-09T02:27:12.143Z,60.7360
2022-08-09T02:28:17.730Z,61.0450
2022-08-09T02:29:17.048Z,61.8220
2022-08-09T02:30:18.302Z,63.1850
2022-08-09T02:31:20.711Z,63.6640
2022-08-09T02:32:23.135Z,63.3410
2022-08-09T02:33:37.714Z,63.5940
2022-08-09T02:34:41.760Z,63.4330
2022-08-09T02:35:46.320Z,63.0670
2022-08-09T02:36:30.776Z,63.0290
2022-08-09T02:37:31.644Z,62.8020
2022-08-09T02:38:34.807Z,62.4010
2022-08-09T02:39:41.797Z,62.6560
2022-08-09T02:40:36.277Z,63.4520
2022-08-09T02:41:38.676Z,63.6100
2022-08-09T02:42:41.117Z,63.3080
2022-08-09T02:43:54.502Z,62.3890
2022-08-09T02:44:45.970Z,61.8070
2022-08-09T02:45:46.202Z,61.2840
2022-08-09T02:46:52.099Z,61.6320
2022-08-09T02:47:59.152Z,61.8800
2022-08-09T02:48:53.918Z,62.2860
2022-08-09T02:50:01.650Z,62.6050
2022-08-09T02:50:58.364Z,63.4490
2022-08-09T02:52:00.787Z,62.9270
2022-08-09T02:53:01.057Z,63.3810
2022-08-09T02:54:03.389Z,63.4810
2022-08-09T02:55:21.111Z,63.5590
2022-08-09T02:56:06.088Z,63.1920
2022-08-09T02:57:14.005Z,62.5110
2022-08-09T02:58:32.393Z,62.3510
2022-08-09T02:59:25.905Z,63.1780
2022-08-09T03:00:25.421Z,64.5520
2022-08-09T03:01:21.911Z,65.0610
2022-08-09T03:02:20.819Z,65.4910
2022-08-09T03:04:13.057Z,65.7960
2022-08-09T03:04:28.795Z,66.0400
2022-08-09T03:05:26.030Z,65.9200
2022-08-09T03:06:29.108Z,65.6550
2022-08-09T03:07:28.740Z,65.3370
2022-08-09T03:08:31.199Z,65.4380
2022-08-09T03:09:33.892Z,65.5100
2022-08-09T03:10:33.997Z,65.8620
2022-08-09T03:12:06.252Z,64.9030
2022-08-09T03:12:36.699Z,64.3100
2022-08-09T03:13:43.767Z,65.1520
2022-08-09T03:14:41.609Z,64.7320
2022-08-09T03:16:06.451Z,64.1970
2022-08-09T03:16:48.316Z,64.0970
2022-08-09T03:17:46.780Z,64.4510
2022-08-09T03:18:50.614Z,64.2780
2022-08-09T03:19:58.335Z,64.6120
2022-08-09T03:20:54.033Z,64.4770
2022-08-09T03:21:56.430Z,64.8380
2022-08-09T03:22:58.162Z,65.0070
2022-08-09T03:24:04.063Z,65.2910
2022-08-09T03:25:21.501Z,64.8280
2022-08-09T03:26:05.060Z,63.4250
2022-08-09T03:27:07.299Z,62.4570
2022-08-09T03:28:11.314Z,61.5050
2022-08-09T03:29:09.683Z,60.7720
2022-08-09T03:30:11.274Z,60.1850
2022-08-09T03:31:22.660Z,59.7810
2022-08-09T03:32:13.875Z,59.4310
2022-08-09T03:33:18.698Z,58.9780
2022-08-09T03:34:18.494Z,58.7180
2022-08-09T03:35:24.850Z,58.4370
2022-08-09T03:36:26.994Z,58.2800
2022-08-09T03:37:55.648Z,58.1030
2022-08-09T03:38:29.178Z,57.9860
2022-08-09T03:39:37.850Z,57.8070
2022-08-09T03:40:31.022Z,57.7800
2022-08-09T03:41:45.832Z,57.7540
2022-08-09T03:42:34.894Z,57.5490
2022-08-09T03:43:36.958Z,57.4330
2022-08-09T03:44:39.275Z,57.2810
2022-08-09T03:46:04.882Z,57.2600
2022-08-09T03:46:43.836Z,57.1650
2022-08-09T03:47:46.714Z,56.9900
2022-08-09T03:48:51.311Z,56.8850
2022-08-09T03:49:58.473Z,56.8260
2022-08-09T03:50:50.876Z,56.7690
2022-08-09T03:51:58.074Z,56.6550
2022-08-09T03:52:55.498Z,56.7450
2022-08-09T03:53:57.761Z,56.7580
2022-08-09T03:55:00.058Z,56.6710
2022-08-09T03:56:00.231Z,56.6010
2022-08-09T03:57:04.430Z,56.6060
2022-08-09T03:58:14.779Z,56.6050
2022-08-09T03:59:05.165Z,56.5820
2022-08-09T04:00:07.534Z,56.5130
2022-08-09T04:01:09.985Z,56.3970
2022-08-09T04:02:10.171Z,56.3530
2022-08-09T04:03:19.578Z,56.2870
2022-08-09T04:04:15.338Z,56.2880
2022-08-09T04:05:27.565Z,56.2610
2022-08-09T04:06:17.506Z,56.2460
2022-08-09T04:07:19.922Z,56.2490
2022-08-09T04:08:20.130Z,56.1650
2022-08-09T04:09:44.415Z,56.2150
2022-08-09T04:10:28.473Z,56.1890
2022-08-09T04:11:25.088Z,56.2580
2022-08-09T04:12:30.833Z,56.1340
2022-08-09T04:14:37.545Z,56.1790
2022-08-09T04:14:54.273Z,56.0940
2022-08-09T04:16:17.194Z,56.0600
2022-08-09T04:16:34.625Z,55.9580
2022-08-09T04:17:34.879Z,55.8380
2022-08-09T04:18:37.223Z,55.6840
2022-08-09T04:19:51.107Z,55.6380
2022-08-09T04:20:41.878Z,55.6030
2022-08-09T04:21:44.209Z,55.5080
2022-08-09T04:22:46.547Z,55.4890
2022-08-09T04:23:53.750Z,55.4220
2022-08-09T04:24:51.159Z,55.4060
2022-08-09T04:25:53.496Z,55.3810
2022-08-09T04:26:55.831Z,55.3810
2022-08-09T04:28:02.358Z,55.3210
2022-08-09T04:29:03.695Z,55.2790
2022-08-09T04:30:02.820Z,55.3330
2022-08-09T04:31:07.787Z,55.2580
2022-08-09T04:32:07.583Z,55.2830
2022-08-09T04:33:07.874Z,55.2300
2022-08-09T04:34:10.005Z,55.2400
2022-08-09T04:35:12.335Z,55.1010
2022-08-09T04:36:14.664Z,55.1450
2022-08-09T04:37:17.001Z,55.1150
2022-08-09T04:38:19.388Z,55.0190
2022-08-09T04:39:19.629Z,54.9030
2022-08-09T04:40:36.029Z,54.9150
2022-08-09T04:41:32.235Z,54.8270
2022-08-09T04:42:26.566Z,54.7950
2022-08-09T04:43:28.922Z,54.8930
2022-08-09T04:44:31.243Z,54.8930
2022-08-09T04:45:36.178Z,54.8430
2022-08-09T04:46:58.219Z,54.7540
2022-08-09T04:47:59.253Z,54.7480
2022-08-09T04:48:40.558Z,54.7540
2022-08-09T04:49:54.644Z,54.6500
2022-08-09T04:50:45.202Z,54.6030
2022-08-09T04:51:47.548Z,54.5840
2022-08-09T04:52:49.890Z,54.5990
2022-08-09T04:53:58.420Z,54.6040
2022-08-09T04:54:52.398Z,54.6990
2022-08-09T04:55:58.109Z,54.6530
2022-08-09T04:56:57.096Z,54.5650
2022-08-09T04:58:01.755Z,54.7850
2022-08-09T04:59:04.880Z,54.8890
2022-08-09T05:00:04.055Z,54.9200
2022-08-09T05:01:16.034Z,54.9730
2022-08-09T05:02:08.646Z,54.8940
2022-08-09T05:03:39.811Z,54.9050
2022-08-09T05:04:13.384Z,54.8820
2022-08-09T05:05:31.481Z,54.8930
2022-08-09T05:06:18.273Z,54.9600
2022-08-09T05:07:20.269Z,54.9330
2022-08-09T05:08:22.596Z,54.9640
2022-08-09T05:09:24.969Z,55.0190
2022-08-09T05:10:27.266Z,55.0380
2022-08-09T05:11:32.381Z,55.0360
2022-08-09T05:12:33.084Z,55.1820
2022-08-09T05:13:34.195Z,55.3150
2022-08-09T05:14:36.539Z,55.2770
2022-08-09T05:15:43.152Z,55.3180
2022-08-09T05:16:58.593Z,55.3560
2022-08-09T05:18:38.364Z,55.3800
2022-08-09T05:18:58.110Z,55.4470
2022-08-09T05:19:48.207Z,55.4300
2022-08-09T05:20:50.498Z,56.9870
2022-08-09T05:21:55.690Z,57.4590
2022-08-09T05:23:54.428Z,57.9950
2022-08-09T05:24:02.114Z,58.9400
2022-08-09T05:25:00.985Z,59.1000
2022-08-09T05:26:00.025Z,58.9340
2022-08-09T05:27:02.399Z,58.8830
2022-08-09T05:28:04.738Z,59.2640
2022-08-09T05:29:04.977Z,59.8690
2022-08-09T05:30:07.389Z,60.0980
2022-08-09T05:31:10.148Z,59.6660
2022-08-09T05:32:09.943Z,59.0340
2022-08-09T05:33:12.311Z,59.1420
2022-08-09T05:34:16.952Z,59.4790
2022-08-09T05:35:14.930Z,59.6670
2022-08-09T05:36:17.247Z,59.8890
2022-08-09T05:37:19.601Z,60.2900
2022-08-09T05:38:22.400Z,60.6920
2022-08-09T05:39:29.628Z,60.5510
2022-08-09T05:40:26.780Z,60.4160
2022-08-09T05:41:26.992Z,60.1490
2022-08-09T05:42:29.321Z,60.1470
2022-08-09T05:43:31.905Z,60.4710
2022-08-09T05:44:32.762Z,60.3190
2022-08-09T05:45:52.517Z,59.9950
2022-08-09T05:46:36.530Z,60.3100
2022-08-09T05:47:45.527Z,60.6920
2022-08-09T05:48:39.169Z,60.7650
2022-08-09T05:50:24.244Z,60.6630
2022-08-09T05:50:51.244Z,60.3130
2022-08-09T05:51:46.432Z,60.0510
2022-08-09T05:52:53.892Z,60.5380
2022-08-09T05:53:56.632Z,60.5520
2022-08-09T05:54:51.645Z,61.0480
2022-08-09T05:55:54.259Z,61.4210
2022-08-09T05:56:56.682Z,61.3490
2022-08-09T05:57:58.479Z,60.9810
2022-08-09T05:58:59.290Z,60.9480
2022-08-09T06:00:01.611Z,60.4040
2022-08-09T06:01:04.056Z,60.1120
2022-08-09T06:02:06.427Z,60.0620
2022-08-09T06:03:10.734Z,59.7980
2022-08-09T06:04:09.156Z,60.1250
2022-08-09T06:05:11.528Z,59.9430
2022-08-09T06:06:13.976Z,59.6360
2022-08-09T06:07:21.666Z,59.5950
2022-08-09T06:08:19.658Z,59.7680
2022-08-09T06:09:40.859Z,59.2960
2022-08-09T06:10:21.406Z,59.4590
2022-08-09T06:11:21.694Z,59.2370
2022-08-09T06:12:32.839Z,58.9140
2022-08-09T06:13:28.490Z,58.6920
2022-08-09T06:14:28.842Z,58.8690
2022-08-09T06:15:31.216Z,59.0560
2022-08-09T06:16:31.501Z,59.0770
2022-08-09T06:17:39.057Z,58.5940
2022-08-09T06:18:36.468Z,58.4930
2022-08-09T06:19:36.541Z,58.6980
2022-08-09T06:20:38.889Z,58.4810
2022-08-09T06:21:51.489Z,58.1640
2022-08-09T06:22:43.689Z,58.1180
2022-08-09T06:23:58.024Z,58.6120
2022-08-09T06:24:46.283Z,58.2510
2022-08-09T06:25:48.766Z,58.3570
2022-08-09T06:26:51.079Z,58.1510
2022-08-09T06:27:51.685Z,57.8310
2022-08-09T06:29:00.352Z,57.6450
2022-08-09T06:29:58.455Z,57.5720
2022-08-09T06:30:58.299Z,57.5540
2022-08-09T06:32:09.237Z,57.3820
2022-08-09T06:33:30.497Z,57.1490
2022-08-09T06:34:05.299Z,56.8390
2022-08-09T06:35:07.643Z,56.5510
2022-08-09T06:36:35.391Z,56.2110
2022-08-09T06:37:50.812Z,55.9160
2022-08-09T06:38:38.228Z,55.5770
2022-08-09T06:39:57.536Z,55.3770
2022-08-09T06:40:42.791Z,55.2350
2022-08-09T06:42:09.053Z,55.0540
2022-08-09T06:42:47.237Z,54.9380
2022-08-09T06:43:49.411Z,54.8780
2022-08-09T06:44:54.047Z,54.7800
2022-08-09T06:46:07.379Z,54.7510
2022-08-09T06:46:56.103Z,54.6250
2022-08-09T06:48:01.515Z,54.5290
2022-08-09T06:49:00.706Z,54.4610
2022-08-09T06:50:13.636Z,54.4370
2022-08-09T06:51:04.541Z,54.4370
2022-08-09T06:52:05.262Z,54.3510
2022-08-09T06:53:07.567Z,54.2920
2022-08-09T06:54:14.807Z,54.3030
2022-08-09T06:55:12.755Z,54.2550
2022-08-09T06:56:14.343Z,54.2760
2022-08-09T06:57:16.615Z,54.1840
2022-08-09T07:00:46.415Z,54.1190
2022-08-09T07:00:50.509Z,54.1380
2022-08-09T07:00:50.842Z,54.0940
2022-08-09T07:01:24.126Z,54.0880
2022-08-09T07:02:29.194Z,54.0000
2022-08-09T07:03:29.005Z,53.9560
2022-08-09T07:04:30.275Z,53.8780
2022-08-09T07:05:58.281Z,53.8550
2022-08-09T07:06:32.633Z,53.8360
2022-08-09T07:08:00.602Z,53.7510
2022-08-09T07:08:39.629Z,53.7700
2022-08-09T07:09:53.751Z,53.6990
2022-08-09T07:10:39.566Z,53.6150
2022-08-09T07:11:51.905Z,53.5860
2022-08-09T07:12:44.380Z,53.5940
2022-08-09T07:13:45.036Z,53.5860
2022-08-09T07:14:50.863Z,53.6070
2022-08-09T07:16:34.986Z,53.6070
2022-08-09T07:16:57.409Z,53.5840
2022-08-09T07:17:52.556Z,53.5840
2022-08-09T07:18:53.492Z,53.5910
2022-08-09T07:19:55.865Z,53.5660
2022-08-09T07:20:58.032Z,53.4690
2022-08-09T07:22:00.343Z,53.4470
2022-08-09T07:23:02.590Z,53.5180
2022-08-09T07:24:05.087Z,53.5010
2022-08-09T07:25:09.413Z,53.4430
2022-08-09T07:26:09.484Z,53.4070
2022-08-09T07:27:26.530Z,53.3860
2022-08-09T07:28:11.891Z,53.3460
2022-08-09T07:29:14.119Z,53.3340
2022-08-09T07:30:16.357Z,53.3650
2022-08-09T07:31:18.615Z,53.3570
2022-08-09T07:32:20.888Z,53.2730
2022-08-09T07:33:23.392Z,53.3570
2022-08-09T07:34:25.706Z,53.2600
2022-08-09T07:35:27.733Z,53.2670
2022-08-09T07:36:27.818Z,53.2850
2022-08-09T07:37:30.059Z,53.2290
2022-08-09T07:38:32.276Z,53.2920
2022-08-09T07:39:41.163Z,53.2310
2022-08-09T07:41:00.649Z,53.3420
2022-08-09T07:41:39.129Z,53.3320
2022-08-09T07:42:41.318Z,53.3090
2022-08-09T07:43:55.853Z,53.2960
2022-08-09T07:44:51.852Z,53.3280
2022-08-09T07:45:46.074Z,53.3210
2022-08-09T07:46:48.348Z,53.2670
2022-08-09T07:48:01.394Z,53.2940
2022-08-09T07:48:59.556Z,53.2380
2022-08-09T07:50:07.617Z,53.3340
2022-08-09T07:51:10.013Z,53.3280
2022-08-09T07:52:06.048Z,53.3020
2022-08-09T07:53:02.846Z,53.2590
2022-08-09T07:54:05.983Z,53.2550
2022-08-09T07:55:09.797Z,53.2670
2022-08-09T07:56:06.469Z,53.1960
2022-08-09T07:57:12.526Z,53.2610
2022-08-09T07:58:13.331Z,53.1950
2022-08-09T07:59:15.020Z,53.2890
2022-08-09T08:00:11.728Z,53.2740
2022-08-09T08:01:14.128Z,53.2950
2022-08-09T08:02:19.347Z,53.2600
2022-08-09T08:03:18.569Z,53.1840
2022-08-09T08:04:18.717Z,53.1300
2022-08-09T08:05:21.031Z,53.1760
2022-08-09T08:06:31.878Z,53.0740
2022-08-09T08:08:42.406Z,53.1510
2022-08-09T08:09:02.322Z,53.0990
2022-08-09T08:09:36.420Z,53.1360
2022-08-09T08:10:28.235Z,53.0940
2022-08-09T08:12:10.512Z,53.0800
2022-08-09T08:12:32.788Z,53.1240
2022-08-09T08:13:40.052Z,53.0960
2022-08-09T08:14:35.218Z,53.0190
2022-08-09T08:15:39.400Z,53.0440
2022-08-09T08:16:39.821Z,53.1340
2022-08-09T08:17:54.591Z,53.2180
2022-08-09T08:18:43.229Z,53.1220
2022-08-09T08:19:44.584Z,53.0730
2022-08-09T08:20:46.845Z,53.0210
2022-08-09T08:21:52.755Z,52.9560
2022-08-09T08:22:51.408Z,52.8850
2022-08-09T08:23:55.864Z,52.9690
2022-08-09T08:24:57.539Z,52.8290
2022-08-09T08:26:06.416Z,52.9360
2022-08-09T08:27:00.723Z,52.8830
2022-08-09T08:28:00.891Z,52.7830
2022-08-09T08:29:03.186Z,52.7460
2022-08-09T08:30:05.475Z,52.7360
2022-08-09T08:31:14.324Z,52.8000
2022-08-09T08:32:12.397Z,52.7580
2022-08-09T08:33:23.912Z,52.7420
2022-08-09T08:34:12.555Z,52.8070
2022-08-09T08:35:18.052Z,52.7480
2022-08-09T08:36:28.351Z,52.8790
2022-08-09T08:37:19.370Z,52.9300
2022-08-09T08:38:21.602Z,52.7070
2022-08-09T08:39:23.910Z,52.5400
2022-08-09T08:40:26.168Z,52.5520
2022-08-09T08:41:42.041Z,52.6880
2022-08-09T08:42:31.812Z,52.6630
2022-08-09T08:43:31.001Z,52.7070
2022-08-09T08:44:33.297Z,52.5570
2022-08-09T08:45:37.681Z,52.4670
2022-08-09T08:46:59.435Z,52.5440
2022-08-09T08:47:42.798Z,52.5970
2022-08-09T08:48:40.338Z,52.4920
2022-08-09T08:49:47.840Z,52.5310
2022-08-09T08:50:45.416Z,52.3770
2022-08-09T08:52:00.332Z,52.3960
2022-08-09T08:53:00.002Z,52.2860
2022-08-09T08:54:03.304Z,52.3000
2022-08-09T08:54:52.002Z,52.3960
2022-08-09T08:55:54.309Z,52.4490
2022-08-09T08:56:56.666Z,52.3300
2022-08-09T08:59:19.947Z,52.3770
2022-08-09T09:00:27.310Z,52.3840
2022-08-09T09:01:20.715Z,52.3650
2022-08-09T09:02:30.881Z,52.2880
2022-08-09T09:03:33.295Z,52.3380
2022-08-09T09:04:27.324Z,52.3320
2022-08-09T09:05:33.359Z,52.3360
2022-08-09T09:06:27.930Z,52.1050
2022-08-09T09:07:30.235Z,52.1360
2022-08-09T09:08:37.799Z,52.1820
2022-08-09T09:09:57.968Z,52.1760
2022-08-09T09:10:37.038Z,52.1920
2022-08-09T09:11:39.339Z,52.1980
2022-08-09T09:12:39.450Z,52.1650
2022-08-09T09:13:56.282Z,52.0120
2022-08-09T09:14:44.008Z,51.9550
2022-08-09T09:15:49.274Z,51.9160
2022-08-09T09:16:48.541Z,51.9740
2022-08-09T09:17:52.924Z,51.9800
2022-08-09T09:19:06.379Z,52.1340
2022-08-09T09:19:55.402Z,51.9990
2022-08-09T09:20:55.488Z,51.9770
2022-08-09T09:21:58.146Z,52.1700
2022-08-09T09:23:01.795Z,52.2530
2022-08-09T09:24:04.708Z,52.1050
2022-08-09T09:26:01.690Z,52.1450
2022-08-09T09:26:12.138Z,52.2410
2022-08-09T09:27:09.137Z,52.2350
2022-08-09T09:28:11.404Z,52.1120
2022-08-09T09:29:17.048Z,52.2370
2022-08-09T09:30:39.785Z,52.1180
2022-08-09T09:31:17.448Z,52.2060
2022-08-09T09:32:16.291Z,52.1390
2022-08-09T09:33:18.516Z,52.1270
2022-08-09T09:34:20.757Z,52.0750
2022-08-09T09:35:23.056Z,51.9910
2022-08-09T09:36:23.208Z,51.9340
2022-08-09T09:37:25.533Z,51.8900
2022-08-09T09:38:36.628Z,51.7740
2022-08-09T09:39:54.504Z,51.8250
2022-08-09T09:40:32.521Z,51.9080
2022-08-09T09:41:48.599Z,51.9920
2022-08-09T09:42:35.277Z,51.9210
2022-08-09T09:43:41.460Z,51.7610
2022-08-09T09:44:39.474Z,51.8190
2022-08-09T09:46:38.866Z,51.6720
2022-08-09T09:46:46.221Z,51.7280
2022-08-09T09:47:48.096Z,51.7280
2022-08-09T09:48:46.572Z,51.8510
2022-08-09T09:50:07.262Z,51.6910
2022-08-09T09:50:51.652Z,51.8630
2022-08-09T09:51:53.419Z,51.7780
2022-08-09T09:52:56.187Z,51.6590
2022-08-09T09:54:02.120Z,51.5910
2022-08-09T09:55:00.221Z,51.6370
2022-08-09T09:56:05.260Z,51.5180
2022-08-09T09:58:00.773Z,51.4440
2022-08-09T09:58:18.871Z,51.4830
2022-08-09T09:59:07.192Z,51.3880
2022-08-09T10:00:09.426Z,51.5910
2022-08-09T10:01:31.332Z,51.4000
2022-08-09T10:02:13.995Z,51.5140
2022-08-09T10:03:16.281Z,51.3340
2022-08-09T10:04:22.789Z,51.4730
2022-08-09T10:04:33.575Z,51.4710
2022-08-09T10:06:03.248Z,51.3720
2022-08-09T10:06:38.022Z,51.4880
2022-08-09T10:08:01.036Z,51.3900
2022-08-09T10:08:54.507Z,51.5660
2022-08-09T10:09:45.952Z,51.3690
2022-08-09T10:10:44.904Z,51.4170
2022-08-09T10:12:01.412Z,51.4730
2022-08-09T10:12:51.850Z,51.3650
2022-08-09T10:13:51.748Z,51.3960
2022-08-09T10:14:54.061Z,51.2990
2022-08-09T10:16:54.768Z,51.2350
2022-08-09T10:17:24.016Z,51.2830
2022-08-09T10:18:00.880Z,51.2870
2022-08-09T10:19:00.983Z,51.2660
2022-08-09T10:20:03.248Z,51.4550
2022-08-09T10:21:05.442Z,51.2640
2022-08-09T10:22:07.717Z,51.3600
2022-08-09T10:23:09.981Z,51.1360
2022-08-09T10:24:15.957Z,51.2070
2022-08-09T10:25:15.324Z,51.2650
2022-08-09T10:26:16.984Z,51.2370
2022-08-09T10:27:24.840Z,51.1870
2022-08-09T10:28:19.467Z,50.7600
2022-08-09T10:30:12.175Z,50.7020
2022-08-09T10:32:39.962Z,50.1740
2022-08-09T10:33:29.855Z,50.1120
2022-08-09T10:34:33.603Z,50.1620
2022-08-09T10:35:35.604Z,50.2010
2022-08-09T10:36:35.749Z,50.0550
2022-08-09T10:37:38.330Z,49.6560
2022-08-09T10:38:56.664Z,49.5600
2022-08-09T10:39:48.932Z,49.7380
2022-08-09T10:40:50.030Z,49.6270
2022-08-09T10:41:47.593Z,49.6460
2022-08-09T10:42:52.967Z,49.5700
2022-08-09T10:44:01.201Z,49.4820
2022-08-09T10:44:53.950Z,49.4960
2022-08-09T10:46:00.062Z,49.5830
2022-08-09T10:47:00.875Z,49.7670
2022-08-09T10:49:10.662Z,49.6680
2022-08-09T10:50:14.832Z,49.7630
2022-08-09T10:51:13.966Z,49.6400
2022-08-09T10:52:20.204Z,49.6170
2022-08-09T10:53:18.450Z,49.7510
2022-08-09T10:54:18.590Z,49.7960
2022-08-09T10:55:20.850Z,49.6500
2022-08-09T10:56:23.302Z,49.7450
2022-08-09T10:57:25.446Z,49.6360
2022-08-09T10:58:27.721Z,49.6050
2022-08-09T10:59:31.143Z,49.6880
2022-08-09T11:00:32.239Z,49.7170
2022-08-09T11:03:11.548Z,49.6630
2022-08-09T11:03:15.717Z,49.6920
2022-08-09T11:03:49.784Z,49.6410
2022-08-09T11:04:55.443Z,49.6590
2022-08-09T11:06:00.422Z,49.7290
2022-08-09T11:06:44.861Z,49.3950
2022-08-09T11:07:56.622Z,49.3430
2022-08-09T11:08:53.054Z,49.3190
2022-08-09T11:09:48.949Z,49.2490
2022-08-09T11:10:54.792Z,49.1160
2022-08-09T11:11:53.336Z,48.9830
2022-08-09T11:12:55.641Z,49.0380
2022-08-09T11:13:57.975Z,48.9910
2022-08-09T11:14:58.172Z,48.7600
2022-08-09T11:16:04.656Z,48.8420
2022-08-09T11:17:02.859Z,49.0320
2022-08-09T11:18:05.156Z,48.8080
2022-08-09T11:19:09.706Z,48.7500
2022-08-09T11:20:17.965Z,48.9280
2022-08-09T11:21:09.998Z,48.8890
2022-08-09T11:22:18.747Z,48.7240
2022-08-09T11:23:12.529Z,48.6790
2022-08-09T11:24:14.858Z,48.6340
2022-08-09T11:25:17.186Z,48.7160
2022-08-09T11:26:21.027Z,48.5590
2022-08-09T11:27:52.753Z,48.6670
2022-08-09T11:28:34.068Z,48.8960
2022-08-09T11:30:05.929Z,48.9220
2022-08-09T11:30:32.362Z,48.9980
2022-08-09T11:31:36.564Z,49.1020
2022-08-09T11:32:29.393Z,49.1110
2022-08-09T11:33:31.642Z,49.1730
2022-08-09T11:34:31.765Z,49.2100
2022-08-09T11:35:34.967Z,49.3260
2022-08-09T11:36:35.881Z,49.4060
2022-08-09T11:37:40.966Z,49.4160
2022-08-09T11:38:41.352Z,49.5300
2022-08-09T11:39:39.095Z,49.4640
2022-08-09T11:40:41.347Z,49.5520
2022-08-09T11:41:43.660Z,49.4950
2022-08-09T11:42:43.757Z,49.4820
2022-08-09T11:43:46.010Z,49.5360
2022-08-09T11:44:46.142Z,49.5620
2022-08-09T11:45:46.291Z,49.5790
2022-08-09T11:46:48.579Z,49.6220
2022-08-09T11:47:50.857Z,49.6670
2022-08-09T11:48:53.817Z,49.6570
2022-08-09T11:50:52.613Z,49.7330
2022-08-09T11:53:02.061Z,49.7990
2022-08-09T11:53:03.372Z,49.8260
2022-08-09T11:53:15.842Z,49.7740
2022-08-09T11:54:06.045Z,49.8500
2022-08-09T11:55:04.850Z,49.9140
2022-08-09T11:56:07.166Z,49.9310
2022-08-09T11:57:07.351Z,49.9000
2022-08-09T11:58:09.704Z,49.8490
2022-08-09T11:59:12.001Z,49.7540
2022-08-09T12:00:16.451Z,49.8260
2022-08-09T12:02:16.154Z,49.9600
2022-08-09T12:02:37.185Z,50.0360
2022-08-09T12:03:50.533Z,50.0070
2022-08-09T12:04:28.638Z,50.0480
2022-08-09T12:05:23.879Z,50.0110
2022-08-09T12:06:31.932Z,50.1570
2022-08-09T12:07:28.439Z,50.0540
2022-08-09T12:08:28.624Z,50.1000
2022-08-09T12:09:33.762Z,50.0770
2022-08-09T12:10:39.373Z,49.9370
2022-08-09T12:11:44.585Z,49.9290
2022-08-09T12:12:37.858Z,50.1000
2022-08-09T12:14:07.397Z,49.9790
2022-08-09T12:15:04.329Z,49.8780
2022-08-09T12:15:50.491Z,49.9440
2022-08-09T12:16:44.959Z,49.9890
2022-08-09T12:17:51.941Z,49.9890
2022-08-09T12:18:53.910Z,49.9250
2022-08-09T12:19:50.806Z,49.9640
2022-08-09T12:20:52.133Z,49.9950
2022-08-09T12:21:54.469Z,49.9600
2022-08-09T12:22:56.813Z,49.9420
2022-08-09T12:24:09.120Z,49.9670
2022-08-09T12:25:01.432Z,49.9540
2022-08-09T12:26:03.718Z,49.9300
2022-08-09T12:29:11.489Z,49.8820
2022-08-09T12:29:11.490Z,49.8780
2022-08-09T12:29:33.100Z,49.8780
2022-08-09T12:30:36.903Z,49.9600
2022-08-09T12:31:31.188Z,50.0430
2022-08-09T12:32:15.397Z,50.0490
2022-08-09T12:33:17.701Z,50.0410